Time;durP1;ratioP1;P1;durP2;ratioP2;P2;SDS_P1;SDS_P2;PMS_P1;PMS_P2;Temp;Humidity;BMP_temperature;BMP_pressure;BME280_temperature;BME280_humidity;BME280_pressure;Samples;Min_cycle;Max_cycle;Signal;HPM_P1;HPM_P2
2023/07/16 00:02:40;;;;;;;4.83;2.57;;;;;;;20.75;95.50;100185.50;6063227;28;20389;-67
2023/07/16 00:05:36;;;;;;;8.13;3.10;;;;;;;20.62;96.67;100191.03;6056561;28;20029;-67
2023/07/16 00:08:31;;;;;;;5.28;2.63;;;;;;;20.72;97.48;100177.84;6057774;28;20489;-66
2023/07/16 00:11:26;;;;;;;4.70;2.37;;;;;;;20.66;97.22;100200.31;6057398;28;20033;-66
2023/07/16 00:14:22;;;;;;;4.60;2.57;;;;;;;20.58;97.40;100196.03;6057136;28;20061;-66
2023/07/16 00:17:17;;;;;;;4.43;2.40;;;;;;;20.61;97.51;100189.38;6057408;28;20049;-66
2023/07/16 00:20:12;;;;;;;6.83;2.40;;;;;;;20.67;98.13;100224.34;6060217;28;20694;-67
2023/07/16 00:23:08;;;;;;;5.63;2.57;;;;;;;20.53;99.36;100232.78;6056973;28;20034;-67
2023/07/16 00:26:03;;;;;;;3.97;2.40;;;;;;;20.47;97.37;100250.66;6057253;28;20022;-66
2023/07/16 00:28:58;;;;;;;6.33;2.40;;;;;;;20.47;95.47;100255.22;6064540;28;20057;-67
2023/07/16 00:31:54;;;;;;;6.47;2.43;;;;;;;20.51;94.75;100261.81;6057306;28;20040;-66
2023/07/16 00:34:49;;;;;;;4.77;2.40;;;;;;;20.42;95.11;100276.59;6056210;28;20044;-67
2023/07/16 00:37:45;;;;;;;3.90;2.23;;;;;;;20.49;95.87;100277.38;6058973;28;20054;-68
2023/07/16 00:40:40;;;;;;;4.85;2.03;;;;;;;20.45;94.98;100260.00;6074636;28;20075;-67
2023/07/16 00:43:35;;;;;;;7.07;2.00;;;;;;;20.62;93.93;100263.78;6062957;28;20038;-66
2023/07/16 00:46:31;;;;;;;5.05;2.30;;;;;;;20.52;94.00;100244.63;6057728;28;20465;-67
2023/07/16 00:49:27;;;;;;;7.93;2.07;;;;;;;20.57;94.11;100260.94;6053112;28;20026;-67
2023/07/16 00:52:22;;;;;;;3.72;1.70;;;;;;;20.47;93.84;100244.44;6052676;28;20581;-67
2023/07/16 00:55:17;;;;;;;5.23;2.20;;;;;;;20.77;94.15;100238.13;6069823;28;20041;-67
2023/07/16 00:58:13;;;;;;;5.35;1.92;;;;;;;20.68;91.50;100198.22;6076889;28;20033;-66
2023/07/16 01:01:11;;;;;;;4.77;2.10;;;;;;;19.99;93.22;100120.38;6070617;28;20550;-66
2023/07/16 01:04:07;;;;;;;5.25;2.17;;;;;;;20.18;93.53;100182.13;6063380;28;20076;-66
2023/07/16 01:07:05;;;;;;;4.10;2.10;;;;;;;20.24;93.09;100196.59;6052849;28;20026;-66
2023/07/16 01:10:00;;;;;;;5.32;2.38;;;;;;;20.29;92.88;100217.47;6052512;28;20374;-66
2023/07/16 01:12:56;;;;;;;3.57;2.03;;;;;;;20.36;92.66;100247.84;6053808;28;20040;-66
2023/07/16 01:15:51;;;;;;;2.92;1.80;;;;;;;20.24;92.48;100276.53;6051443;28;20032;-67
2023/07/16 01:18:47;;;;;;;5.03;2.08;;;;;;;20.08;93.41;100276.00;6052224;28;20065;-67
2023/07/16 01:21:50;;;;;;;6.25;2.17;;;;;;;20.08;95.21;100289.47;6057534;28;20034;-67
2023/07/16 01:25:25;;;;;;;4.38;2.28;;;;;;;19.97;96.11;100303.66;6051248;28;20038;-67
2023/07/16 01:28:43;;;;;;;3.35;1.98;;;;;;;20.09;96.39;100277.66;6066903;28;20076;-67
2023/07/16 01:31:40;;;;;;;3.05;1.85;;;;;;;20.08;97.52;100281.38;6058532;28;20033;-66
2023/07/16 01:34:36;;;;;;;4.15;2.13;;;;;;;20.02;100.00;100251.84;6054790;28;20053;-64
2023/07/16 01:37:32;;;;;;;9.77;2.42;;;;;;;19.89;100.00;100274.31;6051792;28;20117;-64
2023/07/16 01:40:27;;;;;;;5.75;2.20;;;;;;;19.48;100.00;100268.53;6052718;28;20027;-63
2023/07/16 01:43:23;;;;;;;5.63;2.28;;;;;;;19.11;100.00;100277.31;6057463;28;20465;-63
2023/07/16 01:46:18;;;;;;;6.83;2.10;;;;;;;18.79;100.00;100273.69;6072963;28;20043;-64
2023/07/16 01:49:13;;;;;;;5.00;2.38;;;;;;;18.66;100.00;100288.00;6074810;28;20025;-63
2023/07/16 01:52:09;;;;;;;7.07;2.57;;;;;;;18.89;100.00;100258.78;6055711;28;20382;-64
2023/07/16 01:55:04;;;;;;;9.87;2.30;;;;;;;18.78;100.00;100264.00;6062598;28;20037;-63
2023/07/16 01:58:00;;;;;;;6.03;2.40;;;;;;;18.50;100.00;100232.03;6051222;28;20018;-63
2023/07/16 02:00:55;;;;;;;5.03;2.40;;;;;;;18.53;100.00;100296.06;6070549;28;20029;-63
2023/07/16 02:03:50;;;;;;;7.33;2.77;;;;;;;18.41;100.00;100289.63;6050828;28;20100;-63
2023/07/16 02:06:47;;;;;;;3.80;2.37;;;;;;;18.40;100.00;100285.28;6051641;28;20037;-63
2023/07/16 02:09:43;;;;;;;7.50;2.35;;;;;;;18.54;100.00;100275.38;6066855;28;20067;-63
2023/07/16 02:12:38;;;;;;;5.73;2.53;;;;;;;18.41;100.00;100279.72;6056500;28;20038;-62
2023/07/16 02:15:33;;;;;;;10.60;2.30;;;;;;;18.32;100.00;100298.91;6050381;28;20070;-62
2023/07/16 02:18:28;;;;;;;7.37;2.47;;;;;;;18.25;100.00;100308.84;6051933;28;20034;-63
2023/07/16 02:21:24;;;;;;;4.27;1.93;;;;;;;18.03;100.00;100302.00;6056717;28;20037;-63
2023/07/16 02:24:19;;;;;;;5.67;2.13;;;;;;;18.36;100.00;100302.84;6062605;28;20037;-63
2023/07/16 02:27:15;;;;;;;7.50;2.10;;;;;;;18.10;100.00;100306.31;6050621;28;20030;-63
2023/07/16 02:30:10;;;;;;;6.90;2.03;;;;;;;18.53;100.00;100300.63;6065640;28;20079;-64
2023/07/16 02:33:05;;;;;;;5.40;1.90;;;;;;;18.50;100.00;100303.72;6065509;28;20029;-64
2023/07/16 02:36:01;;;;;;;5.67;2.40;;;;;;;18.02;100.00;100298.47;6052848;28;20037;-64
2023/07/16 02:38:56;;;;;;;4.67;1.80;;;;;;;17.79;100.00;100282.78;6054637;28;20381;-65
2023/07/16 02:41:51;;;;;;;5.78;1.80;;;;;;;17.83;100.00;100265.22;6051530;28;20284;-64
2023/07/16 02:44:47;;;;;;;4.57;1.80;;;;;;;17.81;100.00;100275.34;6050090;28;20037;-64
2023/07/16 02:47:42;;;;;;;7.60;2.37;;;;;;;17.95;100.00;100292.28;6050675;28;20099;-64
2023/07/16 02:50:38;;;;;;;4.13;2.40;;;;;;;17.63;100.00;100274.25;6049983;28;20022;-65
2023/07/16 02:53:33;;;;;;;4.85;2.05;;;;;;;17.84;100.00;100312.50;6063609;28;20026;-64
2023/07/16 02:56:28;;;;;;;4.63;2.17;;;;;;;17.63;100.00;100304.59;6063565;28;20042;-64
2023/07/16 02:59:23;;;;;;;4.83;2.10;;;;;;;17.50;100.00;100315.22;6057777;28;20061;-65
2023/07/16 03:02:19;;;;;;;5.47;2.20;;;;;;;17.46;100.00;100305.94;6054178;28;20025;-64
2023/07/16 03:05:15;;;;;;;4.43;2.10;;;;;;;17.49;100.00;100315.44;6053924;28;20040;-65
2023/07/16 03:08:10;;;;;;;5.50;2.50;;;;;;;17.44;100.00;100304.50;6049827;28;20109;-64
2023/07/16 03:11:05;;;;;;;6.33;3.20;;;;;;;17.58;100.00;100312.38;6051992;28;20029;-64
2023/07/16 03:14:01;;;;;;;6.27;2.80;;;;;;;17.68;100.00;100310.19;6050172;28;20084;-65
2023/07/16 03:16:56;;;;;;;10.83;2.70;;;;;;;17.55;100.00;100298.59;6050366;28;20040;-65
2023/07/16 03:19:51;;;;;;;4.97;2.73;;;;;;;17.66;100.00;100309.56;6050337;28;20084;-65
2023/07/16 03:22:48;;;;;;;3.40;1.97;;;;;;;17.40;100.00;100304.06;6049383;28;20273;-65
2023/07/16 03:25:44;;;;;;;6.43;2.33;;;;;;;17.64;100.00;100316.97;6049083;28;20499;-65
2023/07/16 03:28:39;;;;;;;6.10;2.42;;;;;;;17.54;100.00;100346.00;6050446;28;20476;-65
2023/07/16 03:31:36;;;;;;;5.20;2.10;;;;;;;17.48;100.00;100338.72;6049577;28;20040;-65
2023/07/16 03:34:31;;;;;;;5.32;2.55;;;;;;;17.40;100.00;100346.94;6049662;28;20101;-65
2023/07/16 03:37:27;;;;;;;14.30;3.23;;;;;;;17.67;100.00;100359.47;6053104;28;20036;-65
2023/07/16 03:40:26;;;;;;;8.65;2.97;;;;;;;17.57;100.00;100353.66;6050612;28;20026;-64
2023/07/16 03:43:21;;;;;;;5.43;2.45;;;;;;;17.81;100.00;100371.91;6049169;28;20030;-65
2023/07/16 03:46:17;;;;;;;5.73;2.47;;;;;;;17.80;100.00;100362.19;6049678;28;20045;-65
2023/07/16 03:49:12;;;;;;;4.47;2.03;;;;;;;17.81;100.00;100377.28;6049010;28;20025;-65
2023/07/16 03:52:07;;;;;;;5.65;2.17;;;;;;;17.87;100.00;100377.50;6051933;28;20041;-65
2023/07/16 03:55:03;;;;;;;4.60;2.13;;;;;;;17.80;100.00;100386.34;6054534;28;20037;-65
2023/07/16 03:57:58;;;;;;;4.15;2.35;;;;;;;17.79;100.00;100390.06;6051912;28;20072;-65
2023/07/16 04:00:54;;;;;;;3.77;1.97;;;;;;;17.98;100.00;100387.66;6061775;28;20025;-65
2023/07/16 04:03:49;;;;;;;7.10;2.07;;;;;;;18.23;100.00;100380.69;6054654;28;20036;-65
2023/07/16 04:06:44;;;;;;;4.28;2.13;;;;;;;18.12;100.00;100381.28;6049382;28;20272;-65
2023/07/16 04:09:39;;;;;;;5.50;2.20;;;;;;;17.93;100.00;100392.78;6049239;28;20026;-65
2023/07/16 04:12:35;;;;;;;5.93;2.13;;;;;;;18.20;100.00;100397.22;6049354;28;20049;-65
2023/07/16 04:15:30;;;;;;;5.60;2.13;;;;;;;17.79;100.00;100390.06;6052661;28;20042;-65
2023/07/16 04:18:26;;;;;;;3.90;1.80;;;;;;;17.72;100.00;100399.94;6049222;28;20069;-65
2023/07/16 04:21:21;;;;;;;4.07;1.90;;;;;;;17.79;100.00;100410.69;6052330;28;20087;-65
2023/07/16 04:24:16;;;;;;;4.27;1.90;;;;;;;17.65;100.00;100408.97;6055635;28;20283;-65
2023/07/16 04:27:11;;;;;;;4.07;1.90;;;;;;;17.62;100.00;100404.00;6063413;28;20038;-64
2023/07/16 04:30:07;;;;;;;4.23;1.97;;;;;;;17.73;100.00;100416.84;6057644;28;20037;-65
2023/07/16 04:33:03;;;;;;;5.78;1.73;;;;;;;17.88;100.00;100435.50;6053575;28;20400;-65
2023/07/16 04:35:58;;;;;;;4.68;1.80;;;;;;;17.90;100.00;100422.72;6056152;28;20600;-65
2023/07/16 04:38:54;;;;;;;3.83;1.60;;;;;;;18.08;100.00;100441.75;6054052;28;20059;-65
2023/07/16 04:41:49;;;;;;;3.30;1.60;;;;;;;17.90;100.00;100436.94;6053383;28;20037;-65
2023/07/16 04:44:44;;;;;;;4.93;1.50;;;;;;;18.13;100.00;100439.28;6052595;28;20103;-65
2023/07/16 04:47:39;;;;;;;4.93;1.60;;;;;;;18.41;100.00;100448.06;6053059;28;20470;-65
2023/07/16 04:50:35;;;;;;;9.07;1.63;;;;;;;18.75;100.00;100455.97;6053880;28;20044;-65
2023/07/16 04:53:30;;;;;;;5.03;1.47;;;;;;;19.01;100.00;100474.00;6052051;28;20042;-65
2023/07/16 04:56:25;;;;;;;4.80;1.50;;;;;;;19.12;100.00;100456.41;6066562;28;20354;-64
2023/07/16 04:59:21;;;;;;;5.50;1.60;;;;;;;19.28;100.00;100474.81;6076763;28;20037;-65
2023/07/16 05:02:17;;;;;;;3.97;1.47;;;;;;;19.67;100.00;100469.41;6072536;28;20037;-65
2023/07/16 05:05:12;;;;;;;4.13;1.55;;;;;;;19.56;100.00;100470.88;6052168;28;20510;-66
2023/07/16 05:08:07;;;;;;;7.43;1.63;;;;;;;19.74;100.00;100470.22;6052681;28;20071;-66
2023/07/16 05:11:02;;;;;;;5.10;1.50;;;;;;;19.80;98.07;100469.38;6053859;28;20108;-66
2023/07/16 05:13:58;;;;;;;7.87;2.00;;;;;;;19.67;97.95;100479.34;6052060;28;20629;-66
2023/07/16 05:16:53;;;;;;;3.90;1.70;;;;;;;19.85;94.61;100472.25;6057311;28;20030;-65
2023/07/16 05:19:48;;;;;;;4.20;1.50;;;;;;;19.73;95.47;100490.06;6054935;28;20268;-66
2023/07/16 05:22:45;;;;;;;3.95;1.60;;;;;;;19.78;95.94;100484.91;6052776;28;20882;-66
2023/07/16 05:25:47;;;;;;;5.53;1.77;;;;;;;19.62;96.63;100496.13;6058945;28;20045;-65
2023/07/16 05:28:43;;;;;;;5.15;1.90;;;;;;;19.80;95.30;100496.28;6071429;28;20284;-66
2023/07/16 05:31:38;;;;;;;2.97;1.43;;;;;;;19.88;95.59;100496.06;6065160;28;20048;-65
2023/07/16 05:34:33;;;;;;;3.90;1.40;;;;;;;19.93;93.17;100496.22;6052210;28;20050;-65
2023/07/16 05:37:29;;;;;;;7.87;2.20;;;;;;;19.88;94.95;100504.13;6051858;28;20049;-66
2023/07/16 05:40:24;;;;;;;5.00;1.70;;;;;;;19.89;92.95;100504.97;6051506;28;20273;-66
2023/07/16 05:43:19;;;;;;;4.40;1.40;;;;;;;19.84;94.82;100494.00;6051777;28;20033;-65
2023/07/16 05:46:14;;;;;;;4.80;1.57;;;;;;;20.19;93.58;100523.06;6057965;28;20030;-66
2023/07/16 05:49:10;;;;;;;2.90;1.40;;;;;;;20.40;90.47;100513.91;6071439;28;20279;-66
2023/07/16 05:52:05;;;;;;;4.60;1.53;;;;;;;20.76;90.40;100524.88;6065105;28;20091;-66
2023/07/16 05:55:01;;;;;;;3.60;1.50;;;;;;;20.91;89.15;100521.88;6053388;28;20503;-65
2023/07/16 05:57:56;;;;;;;3.30;1.45;;;;;;;20.85;89.36;100528.13;6073022;28;20447;-65
2023/07/16 06:00:51;;;;;;;6.07;1.80;;;;;;;21.05;85.79;100526.16;6060864;28;20030;-65
2023/07/16 06:03:47;;;;;;;4.40;1.30;;;;;;;21.55;83.26;100518.09;6051862;28;20079;-65
2023/07/16 06:06:42;;;;;;;3.33;1.60;;;;;;;21.20;83.79;100529.38;6055571;28;20030;-65
2023/07/16 06:09:37;;;;;;;3.33;1.60;;;;;;;21.82;81.02;100532.97;6051210;28;20022;-67
2023/07/16 06:12:32;;;;;;;6.27;1.57;;;;;;;22.31;79.76;100543.63;6051210;28;20458;-66
2023/07/16 06:15:28;;;;;;;3.23;1.40;;;;;;;21.77;81.64;100538.19;6051025;28;20030;-65
2023/07/16 06:18:23;;;;;;;5.78;1.70;;;;;;;22.19;80.15;100523.84;6056151;28;20061;-65
2023/07/16 06:21:19;;;;;;;4.27;1.60;;;;;;;22.50;77.43;100534.44;6068883;28;20042;-65
2023/07/16 06:24:14;;;;;;;5.10;1.40;;;;;;;22.91;75.62;100543.72;6052591;28;20037;-65
2023/07/16 06:27:09;;;;;;;5.28;1.55;;;;;;;22.42;77.53;100545.59;6053950;28;20051;-65
2023/07/16 06:30:06;;;;;;;5.87;1.80;;;;;;;22.10;78.22;100535.16;6069095;28;20037;-65
2023/07/16 06:33:01;;;;;;;3.45;1.70;;;;;;;22.20;77.28;100547.13;6061234;28;20048;-65
2023/07/16 06:35:56;;;;;;;3.55;1.75;;;;;;;22.09;75.77;100549.75;6068814;28;20033;-65
2023/07/16 06:38:51;;;;;;;5.20;2.00;;;;;;;21.69;75.32;100549.28;6052048;28;20032;-65
2023/07/16 06:41:47;;;;;;;6.10;1.83;;;;;;;21.53;76.56;100555.25;6050088;28;20079;-65
2023/07/16 06:44:42;;;;;;;3.70;1.70;;;;;;;21.56;77.67;100566.44;6049834;28;20440;-66
2023/07/16 06:47:37;;;;;;;8.23;1.90;;;;;;;21.83;76.48;100567.00;6061185;28;20030;-65
2023/07/16 06:50:33;;;;;;;5.20;1.90;;;;;;;22.22;76.13;100573.91;6051038;28;20041;-66
2023/07/16 06:53:28;;;;;;;4.40;1.60;;;;;;;22.47;75.00;100580.88;6050399;28;20037;-66
2023/07/16 06:56:23;;;;;;;4.60;1.80;;;;;;;22.41;75.24;100572.84;6060344;28;20473;-66
2023/07/16 06:59:19;;;;;;;7.07;1.83;;;;;;;23.01;71.79;100576.44;6043602;28;20797;-67
2023/07/16 07:02:16;;;;;;;7.00;2.10;;;;;;;22.89;71.63;100586.38;6050843;28;20029;-65
2023/07/16 07:05:11;;;;;;;3.58;1.45;;;;;;;22.70;72.14;100590.19;6049665;28;20034;-67
2023/07/16 07:08:06;;;;;;;6.35;1.67;;;;;;;22.45;72.58;100593.78;6050154;28;20049;-67
2023/07/16 07:11:03;;;;;;;6.85;1.90;;;;;;;21.99;74.24;100609.66;6049087;28;20100;-67
2023/07/16 07:13:58;;;;;;;4.70;1.65;;;;;;;22.16;72.08;100591.84;6052937;28;20104;-65
2023/07/16 07:16:54;;;;;;;4.20;1.97;;;;;;;21.84;72.76;100599.19;6051331;28;20058;-65
2023/07/16 07:19:49;;;;;;;4.73;1.70;;;;;;;21.82;71.56;100595.88;6050223;28;20021;-66
2023/07/16 07:22:44;;;;;;;5.13;2.13;;;;;;;21.86;72.03;100609.78;6049455;28;20053;-65
2023/07/16 07:25:39;;;;;;;6.27;1.73;;;;;;;22.16;70.81;100605.34;6049768;28;20354;-65
2023/07/16 07:28:35;;;;;;;4.07;1.70;;;;;;;22.27;67.67;100588.38;6049750;28;20291;-65
2023/07/16 07:31:30;;;;;;;5.20;1.70;;;;;;;22.32;66.17;100610.16;6049572;28;20018;-65
2023/07/16 07:34:25;;;;;;;2.70;1.70;;;;;;;22.68;63.85;100603.09;6049152;28;20045;-65
2023/07/16 07:37:21;;;;;;;8.00;1.80;;;;;;;22.35;60.95;100589.97;6049815;28;20284;-65
2023/07/16 07:40:17;;;;;;;7.10;1.77;;;;;;;22.56;61.25;100589.50;6055549;28;20029;-65
2023/07/16 07:43:12;;;;;;;6.32;1.92;;;;;;;22.24;61.01;100585.31;6049706;28;20264;-65
2023/07/16 07:46:07;;;;;;;7.13;1.77;;;;;;;22.68;60.99;100586.88;6048931;28;20037;-65
2023/07/16 07:49:03;;;;;;;3.10;1.37;;;;;;;22.79;58.70;100599.63;6049775;28;20104;-65
2023/07/16 07:51:58;;;;;;;10.50;1.77;;;;;;;22.78;57.83;100595.25;6050253;28;20264;-65
2023/07/16 07:54:53;;;;;;;5.15;1.55;;;;;;;22.82;57.12;100580.25;6055038;28;20265;-65
2023/07/16 07:57:49;;;;;;;3.70;1.37;;;;;;;23.00;56.06;100602.66;6069351;28;20029;-65
2023/07/16 08:00:44;;;;;;;4.87;1.63;;;;;;;22.79;57.10;100599.63;6077961;28;20373;-65
2023/07/16 08:03:39;;;;;;;3.80;1.40;;;;;;;22.91;54.02;100597.81;6058683;28;20034;-65
2023/07/16 08:06:35;;;;;;;4.30;1.60;;;;;;;23.05;54.70;100610.06;6054325;28;20037;-65
2023/07/16 08:09:30;;;;;;;5.25;1.42;;;;;;;22.99;52.94;100611.03;6055489;28;20033;-65
2023/07/16 08:12:25;;;;;;;5.72;1.70;;;;;;;23.25;52.83;100609.78;6054225;28;20029;-66
2023/07/16 08:15:21;;;;;;;6.33;1.93;;;;;;;23.34;53.34;100622.78;6053273;28;20037;-65
2023/07/16 08:18:16;;;;;;;4.40;1.30;;;;;;;23.15;54.23;100625.78;6054021;28;20276;-65
2023/07/16 08:21:19;;;;;;;4.63;1.40;;;;;;;22.87;55.07;100629.06;6053650;28;20034;-65
2023/07/16 08:24:15;;;;;;;5.07;1.50;;;;;;;22.38;52.85;100613.84;6052976;28;20037;-65
2023/07/16 08:27:10;;;;;;;3.85;1.50;;;;;;;22.76;50.13;100619.00;6054773;28;20080;-64
2023/07/16 08:30:06;;;;;;;6.15;1.95;;;;;;;23.10;49.70;100594.00;6053381;28;20152;-68
2023/07/16 08:33:02;;;;;;;5.97;1.77;;;;;;;23.52;50.53;100611.91;6054872;28;20425;-67
2023/07/16 08:35:57;;;;;;;4.47;1.98;;;;;;;23.26;48.72;100633.09;6061151;28;20061;-66
2023/07/16 08:38:52;;;;;;;8.00;1.83;;;;;;;22.99;48.42;100643.47;6053558;28;20029;-64
2023/07/16 08:41:48;;;;;;;3.47;1.63;;;;;;;22.79;48.12;100634.78;6059099;28;20268;-65
2023/07/16 08:44:43;;;;;;;5.22;2.05;;;;;;;23.05;47.92;100642.53;6052475;28;20045;-65
2023/07/16 08:47:39;;;;;;;5.38;1.50;;;;;;;22.89;46.95;100633.19;6051913;28;20034;-65
2023/07/16 08:50:37;;;;;;;6.27;1.67;;;;;;;23.27;48.88;100624.75;6053571;28;20120;-65
2023/07/16 08:53:33;;;;;;;3.10;1.40;;;;;;;23.51;47.11;100623.78;6059831;28;20030;-65
2023/07/16 08:56:28;;;;;;;4.45;1.67;;;;;;;23.35;48.18;100610.03;6054573;28;20032;-65
2023/07/16 08:59:24;;;;;;;3.55;1.40;;;;;;;23.54;45.98;100612.47;6075600;28;20025;-65
2023/07/16 09:02:20;;;;;;;4.32;1.30;;;;;;;23.88;46.95;100610.03;6069860;28;20033;-65
2023/07/16 09:05:19;;;;;;;4.25;1.45;;;;;;;24.13;45.41;100611.47;6055644;28;20029;-65
2023/07/16 09:08:15;;;;;;;4.45;1.83;;;;;;;24.07;46.22;100633.25;6050133;28;20092;-65
2023/07/16 09:11:12;;;;;;;7.03;1.92;;;;;;;23.91;46.06;100606.88;6051656;28;20030;-66
2023/07/16 09:14:07;;;;;;;4.47;1.70;;;;;;;23.80;45.17;100613.09;6052775;28;20477;-65
2023/07/16 09:17:03;;;;;;;4.97;1.67;;;;;;;24.01;45.97;100621.47;6052936;28;20087;-65
2023/07/16 09:20:02;;;;;;;3.92;1.77;;;;;;;24.28;46.91;100630.78;6052593;28;20045;-66
2023/07/16 09:22:58;;;;;;;3.88;1.70;;;;;;;24.34;45.24;100629.00;6052361;28;20033;-66
2023/07/16 09:25:54;;;;;;;6.70;1.45;;;;;;;24.43;44.31;100624.88;6051193;28;20460;-66
2023/07/16 09:28:49;;;;;;;4.28;1.65;;;;;;;24.43;45.58;100616.75;6052258;28;20037;-66
2023/07/16 09:31:59;;;;;;;6.97;1.90;;;;;;;24.21;46.22;100621.16;6052277;28;20535;-66
2023/07/16 09:34:54;;;;;;;6.28;1.98;;;;;;;24.51;47.02;100621.81;6051357;28;20304;-66
2023/07/16 09:37:51;;;;;;;5.73;1.60;;;;;;;24.73;44.88;100624.69;6052167;28;20116;-67
2023/07/16 09:40:46;;;;;;;4.43;1.80;;;;;;;24.58;45.50;100622.47;6050401;28;20409;-66
2023/07/16 09:43:41;;;;;;;5.60;1.60;;;;;;;24.47;43.18;100626.03;6050979;28;20042;-67
2023/07/16 09:46:37;;;;;;;5.15;1.58;;;;;;;24.69;44.67;100632.47;6050551;28;20026;-66
2023/07/16 09:49:32;;;;;;;4.93;1.60;;;;;;;24.81;41.49;100641.41;6067151;28;20060;-66
2023/07/16 09:52:27;;;;;;;4.70;1.57;;;;;;;25.05;40.94;100657.63;6051682;28;20072;-67
2023/07/16 09:55:23;;;;;;;5.93;1.70;;;;;;;24.94;41.55;100663.94;6051523;28;20040;-67
2023/07/16 09:58:20;;;;;;;6.38;1.67;;;;;;;25.00;42.24;100669.22;6071442;28;20025;-67
2023/07/16 10:01:15;;;;;;;4.72;1.55;;;;;;;24.67;40.82;100642.75;6073981;28;20105;-66
2023/07/16 10:04:15;;;;;;;4.23;1.70;;;;;;;24.72;39.16;100642.03;6074877;28;20042;-66
2023/07/16 10:07:22;;;;;;;3.55;1.27;;;;;;;25.29;38.53;100651.03;6075317;28;20029;-67
2023/07/16 10:10:18;;;;;;;3.15;1.40;;;;;;;25.15;38.50;100644.25;6066227;28;20085;-66
2023/07/16 10:13:13;;;;;;;4.60;1.33;;;;;;;25.22;38.73;100655.81;6051223;28;20026;-66
2023/07/16 10:16:20;;;;;;;5.10;1.70;;;;;;;25.25;40.00;100666.97;6050388;28;20042;-67
2023/07/16 10:19:23;;;;;;;4.05;1.60;;;;;;;25.22;38.64;100650.38;6051196;28;20296;-67
2023/07/16 10:22:19;;;;;;;3.42;1.40;;;;;;;25.28;38.97;100641.22;6051036;28;20030;-67
2023/07/16 10:25:17;;;;;;;3.92;1.60;;;;;;;25.08;38.63;100654.44;6050614;28;20026;-67
2023/07/16 10:28:13;;;;;;;2.63;1.23;;;;;;;24.90;39.21;100630.19;6050901;28;20030;-66
2023/07/16 10:31:22;;;;;;;4.57;1.53;;;;;;;25.60;40.63;100642.38;6052760;28;20028;-66
2023/07/16 10:34:22;;;;;;;6.63;1.83;;;;;;;25.63;40.25;100641.88;6053451;28;20465;-67
2023/07/16 10:37:17;;;;;;;4.68;1.50;;;;;;;25.30;39.42;100650.78;6050580;28;20053;-67
2023/07/16 10:40:14;;;;;;;3.97;1.40;;;;;;;25.48;37.85;100657.94;6050759;28;20032;-67
2023/07/16 10:43:10;;;;;;;4.57;1.40;;;;;;;25.65;39.05;100645.19;6053921;28;20369;-67
2023/07/16 10:46:05;;;;;;;4.40;1.58;;;;;;;25.99;38.29;100657.69;6050060;28;20042;-67
2023/07/16 10:49:01;;;;;;;3.75;1.55;;;;;;;26.14;38.05;100650.88;6049098;28;20061;-67
2023/07/16 10:51:59;;;;;;;2.42;1.40;;;;;;;26.25;37.32;100649.94;6050304;28;20072;-66
2023/07/16 10:54:54;;;;;;;6.20;1.45;;;;;;;26.49;37.29;100648.66;6050937;28;20057;-67
2023/07/16 10:57:50;;;;;;;5.40;1.90;;;;;;;25.99;38.05;100662.31;6068811;28;20068;-67
2023/07/16 11:00:47;;;;;;;8.05;1.77;;;;;;;25.71;38.10;100668.63;6072864;28;20478;-67
2023/07/16 11:03:42;;;;;;;8.63;2.58;;;;;;;25.19;40.93;100653.56;6073291;28;20056;-67
2023/07/16 11:06:37;;;;;;;5.60;1.60;;;;;;;24.59;40.84;100662.13;6073957;28;20036;-67
2023/07/16 11:09:33;;;;;;;5.57;2.97;;;;;;;24.37;40.30;100669.22;6073866;28;20452;-67
2023/07/16 11:12:28;;;;;;;6.53;3.15;;;;;;;24.08;40.70;100664.72;6073744;28;20029;-67
2023/07/16 11:15:32;;;;;;;3.37;1.47;;;;;;;24.49;41.00;100661.88;6060050;28;20112;-67
2023/07/16 11:18:27;;;;;;;3.85;2.17;;;;;;;24.93;39.06;100681.25;6049829;28;20287;-67
2023/07/16 11:21:23;;;;;;;5.53;2.00;;;;;;;25.35;38.66;100669.91;6048968;28;20018;-67
2023/07/16 11:24:19;;;;;;;4.03;1.60;;;;;;;25.76;38.91;100679.63;6049277;28;20256;-67
2023/07/16 11:27:21;;;;;;;4.18;1.77;;;;;;;26.06;39.14;100679.28;6050321;28;20753;-67
2023/07/16 11:30:23;;;;;;;3.67;1.45;;;;;;;25.95;37.29;100667.41;6050746;28;20049;-67
2023/07/16 11:33:18;;;;;;;4.18;1.77;;;;;;;25.52;37.20;100675.38;6049208;28;20450;-67
2023/07/16 11:36:13;;;;;;;4.70;1.97;;;;;;;24.90;38.46;100668.19;6049693;28;20088;-67
2023/07/16 11:39:11;;;;;;;3.70;1.80;;;;;;;25.21;39.10;100675.88;6049497;28;20736;-67
2023/07/16 11:42:06;;;;;;;4.47;1.63;;;;;;;25.61;38.44;100665.75;6048692;28;20112;-67
2023/07/16 11:45:02;;;;;;;5.37;1.90;;;;;;;25.82;38.45;100684.03;6049130;28;20024;-67
2023/07/16 11:47:59;;;;;;;6.20;2.05;;;;;;;25.76;38.10;100663.31;6051461;28;20741;-67
2023/07/16 11:50:54;;;;;;;4.35;2.00;;;;;;;25.90;37.26;100672.75;6049732;28;20030;-67
2023/07/16 11:53:50;;;;;;;5.83;2.17;;;;;;;26.22;37.28;100669.47;6048773;28;20037;-67
2023/07/16 11:56:47;;;;;;;3.53;2.03;;;;;;;26.29;37.35;100673.66;6049583;28;20036;-67
2023/07/16 11:59:42;;;;;;;4.57;2.00;;;;;;;26.43;36.90;100674.13;6050682;28;20080;-68
2023/07/16 12:02:37;;;;;;;4.13;2.20;;;;;;;26.42;35.68;100684.19;6073054;28;20029;-67
2023/07/16 12:05:33;;;;;;;6.90;2.50;;;;;;;26.54;35.10;100671.31;6050025;28;20022;-67
2023/07/16 12:08:29;;;;;;;5.73;2.77;;;;;;;26.62;36.17;100683.66;6069028;28;20067;-67
2023/07/16 12:11:24;;;;;;;5.30;2.33;;;;;;;27.22;34.31;100677.31;6073236;28;20422;-68
2023/07/16 12:14:20;;;;;;;7.37;2.10;;;;;;;27.16;34.44;100663.66;6067133;28;20017;-68
2023/07/16 12:17:15;;;;;;;3.73;1.87;;;;;;;27.12;33.68;100676.13;6049202;28;20261;-67
2023/07/16 12:20:11;;;;;;;6.13;2.43;;;;;;;27.20;33.03;100680.31;6050940;28;20365;-67
2023/07/16 12:23:06;;;;;;;7.13;2.20;;;;;;;27.16;35.09;100690.88;6049071;28;20028;-67
2023/07/16 12:26:01;;;;;;;5.10;2.07;;;;;;;26.99;34.04;100684.69;6048637;28;20129;-67
2023/07/16 12:28:56;;;;;;;7.03;2.03;;;;;;;27.04;33.91;100662.97;6050223;28;20018;-67
2023/07/16 12:31:52;;;;;;;4.90;2.30;;;;;;;27.32;33.56;100680.13;6072787;28;20029;-67
2023/07/16 12:34:47;;;;;;;6.43;2.10;;;;;;;27.30;35.33;100664.06;6072584;28;20616;-67
2023/07/16 12:37:42;;;;;;;5.43;2.03;;;;;;;27.53;33.22;100684.75;6056702;28;20029;-67
2023/07/16 12:40:40;;;;;;;5.80;1.90;;;;;;;27.37;32.68;100691.13;6055730;28;20747;-67
2023/07/16 12:43:35;;;;;;;6.32;2.38;;;;;;;27.53;31.60;100679.31;6052613;28;20108;-67
2023/07/16 12:46:31;;;;;;;3.60;1.87;;;;;;;26.91;32.92;100682.41;6053240;28;20079;-67
2023/07/16 12:49:26;;;;;;;7.37;2.27;;;;;;;27.26;32.01;100681.19;6053190;28;20025;-66
2023/07/16 12:52:21;;;;;;;4.27;2.20;;;;;;;27.18;33.06;100694.16;6052790;28;20300;-67
2023/07/16 12:55:17;;;;;;;3.23;1.73;;;;;;;27.25;33.10;100683.09;6052294;28;20080;-67
2023/07/16 12:58:12;;;;;;;5.43;1.90;;;;;;;26.62;33.92;100686.38;6053024;28;20034;-67
2023/07/16 13:01:07;;;;;;;5.13;2.10;;;;;;;26.73;34.72;100674.53;6065029;28;20108;-67
2023/07/16 13:04:03;;;;;;;3.38;1.80;;;;;;;26.97;33.32;100689.56;6076188;28;20104;-68
2023/07/16 13:06:58;;;;;;;3.95;2.03;;;;;;;26.33;34.38;100712.06;6076604;28;20027;-68
2023/07/16 13:09:53;;;;;;;3.90;1.87;;;;;;;25.91;34.30;100695.34;6062239;28;20030;-67
2023/07/16 13:12:49;;;;;;;4.07;1.73;;;;;;;26.32;33.71;100688.66;6056859;28;20299;-67
2023/07/16 13:15:45;;;;;;;5.13;2.00;;;;;;;27.08;33.47;100704.94;6051918;28;20148;-68
2023/07/16 13:18:40;;;;;;;3.55;1.90;;;;;;;27.49;33.12;100689.06;6052741;28;20026;-67
2023/07/16 13:21:35;;;;;;;5.50;2.20;;;;;;;27.93;33.15;100681.56;6052294;28;20476;-67
2023/07/16 13:24:30;;;;;;;4.47;2.07;;;;;;;28.04;31.08;100667.78;6063935;28;20038;-68
2023/07/16 13:27:26;;;;;;;5.30;2.13;;;;;;;27.97;32.50;100688.94;6052010;28;20021;-67
2023/07/16 13:30:21;;;;;;;4.53;1.93;;;;;;;27.58;32.58;100677.47;6064562;28;20033;-67
2023/07/16 13:33:17;;;;;;;4.85;2.05;;;;;;;27.59;32.46;100689.16;6075746;28;20260;-68
2023/07/16 13:36:12;;;;;;;3.53;1.90;;;;;;;27.05;30.27;100683.69;6075606;28;20036;-67